Time;durP1;ratioP1;P1;durP2;ratioP2;P2;SDS_P1;SDS_P2;PMS_P1;PMS_P2;Temp;Humidity;BMP_temperature;BMP_pressure;BME280_temperature;BME280_humidity;BME280_pressure;Samples;Min_cycle;Max_cycle;Signal;HPM_P1;HPM_P2
2021/10/25 00:01:31;;;;;;;15.88;10.43;;;6.40;99.90;;;;;;5034135;28;20229;-75
2021/10/25 00:03:57;;;;;;;12.63;9.90;;;6.40;99.90;;;;;;5034645;28;20194;-74
2021/10/25 00:06:22;;;;;;;18.50;9.37;;;6.40;99.90;;;;;;5034036;28;20264;-74
2021/10/25 00:08:48;;;;;;;15.50;10.40;;;6.40;99.90;;;;;;5034370;28;20431;-74
2021/10/25 00:11:14;;;;;;;14.20;10.40;;;6.40;99.90;;;;;;5033603;28;20496;-74
2021/10/25 00:13:40;;;;;;;15.57;11.20;;;6.40;99.90;;;;;;5035258;28;20170;-74
2021/10/25 00:16:07;;;;;;;13.88;12.40;;;6.40;99.90;;;;;;5033610;28;20300;-74
2021/10/25 00:18:33;;;;;;;19.33;11.43;;;6.40;99.90;;;;;;5027559;28;20198;-74
2021/10/25 00:20:59;;;;;;;14.02;10.63;;;6.30;99.90;;;;;;5034403;28;20201;-74
2021/10/25 00:23:25;;;;;;;13.70;11.00;;;6.30;99.90;;;;;;5033654;28;20186;-74
2021/10/25 00:25:50;;;;;;;12.73;10.53;;;6.30;99.90;;;;;;5032792;28;20216;-74
2021/10/25 00:28:16;;;;;;;15.37;10.67;;;6.30;99.90;;;;;;5031631;28;20298;-74
2021/10/25 00:30:42;;;;;;;13.57;10.70;;;6.30;99.90;;;;;;5030606;28;20187;-74
2021/10/25 00:33:07;;;;;;;15.43;11.37;;;6.20;99.90;;;;;;5034793;28;20182;-75
2021/10/25 00:35:48;;;;;;;14.10;10.43;;;6.20;99.90;;;;;;5032921;28;20518;-75
2021/10/25 00:38:15;;;;;;;15.45;11.48;;;6.20;99.90;;;;;;5033602;28;20706;-74
2021/10/25 00:40:42;;;;;;;18.13;10.77;;;6.10;99.90;;;;;;5034122;28;20191;-76
2021/10/25 00:43:08;;;;;;;17.05;11.45;;;6.10;99.90;;;;;;5034037;28;20179;-77
2021/10/25 00:45:34;;;;;;;16.00;10.10;;;6.00;99.90;;;;;;5033715;28;20243;-74
2021/10/25 00:47:59;;;;;;;18.37;13.07;;;6.00;99.90;;;;;;5033035;28;20202;-76
2021/10/25 00:50:25;;;;;;;17.83;11.20;;;6.10;99.90;;;;;;5032663;28;20245;-75
2021/10/25 00:52:51;;;;;;;13.60;10.50;;;6.10;99.90;;;;;;5032368;28;20190;-76
2021/10/25 00:55:18;;;;;;;14.50;10.57;;;6.10;99.90;;;;;;5033676;28;20862;-76
2021/10/25 00:57:44;;;;;;;16.92;11.77;;;6.00;99.90;;;;;;5032557;28;20291;-76
2021/10/25 01:00:11;;;;;;;14.67;11.57;;;5.90;99.90;;;;;;5033538;28;20178;-76
2021/10/25 01:02:37;;;;;;;16.90;12.60;;;5.90;99.90;;;;;;5032978;28;20571;-76
2021/10/25 01:05:04;;;;;;;22.70;12.52;;;5.90;99.90;;;;;;5034161;28;20191;-76
2021/10/25 01:07:29;;;;;;;13.27;11.05;;;5.80;99.90;;;;;;5032266;28;20182;-76
2021/10/25 01:09:56;;;;;;;21.43;12.00;;;5.80;99.90;;;;;;5033965;28;20710;-76
2021/10/25 01:12:22;;;;;;;16.23;10.95;;;5.70;99.90;;;;;;5033075;28;20186;-76
2021/10/25 01:14:48;;;;;;;17.47;11.77;;;5.70;99.90;;;;;;5033910;28;20340;-76
2021/10/25 01:17:13;;;;;;;19.13;11.63;;;5.70;99.90;;;;;;5031853;28;20257;-76
2021/10/25 01:19:39;;;;;;;21.27;12.70;;;5.70;99.90;;;;;;5029834;28;20198;-75
2021/10/25 01:22:05;;;;;;;12.83;11.20;;;5.70;99.90;;;;;;5032157;28;20243;-76
2021/10/25 01:24:30;;;;;;;16.27;11.40;;;5.70;99.90;;;;;;5032024;28;20439;-75
2021/10/25 01:26:56;;;;;;;18.50;12.37;;;5.60;99.90;;;;;;5031984;28;20192;-76
2021/10/25 01:29:22;;;;;;;16.00;11.57;;;5.60;99.90;;;;;;5032960;28;20182;-76
2021/10/25 01:31:48;;;;;;;16.20;10.27;;;5.60;99.90;;;;;;5032203;28;20193;-76
2021/10/25 01:34:14;;;;;;;16.60;12.25;;;5.60;99.90;;;;;;5032229;28;20197;-76
2021/10/25 01:36:40;;;;;;;14.60;10.90;;;5.60;99.90;;;;;;5032832;28;20187;-76
2021/10/25 01:39:07;;;;;;;20.63;12.80;;;5.60;99.90;;;;;;5031359;28;20942;-75
2021/10/25 01:41:33;;;;;;;18.90;11.85;;;5.60;99.90;;;;;;5031254;28;20190;-76
2021/10/25 01:43:59;;;;;;;20.48;11.57;;;5.50;99.90;;;;;;5032012;28;20357;-75
2021/10/25 01:46:25;;;;;;;18.27;10.60;;;5.50;99.90;;;;;;5032212;28;20285;-75
2021/10/25 01:48:50;;;;;;;13.70;11.07;;;5.60;99.90;;;;;;5032684;28;20640;-76
2021/10/25 01:51:16;;;;;;;14.77;11.77;;;5.60;99.90;;;;;;5036547;28;20182;-76
2021/10/25 01:53:43;;;;;;;18.60;12.67;;;5.70;99.90;;;;;;5031873;28;20259;-76
2021/10/25 01:56:09;;;;;;;18.52;12.25;;;5.70;99.90;;;;;;5032554;28;20198;-76
2021/10/25 01:58:35;;;;;;;22.38;11.40;;;5.70;99.90;;;;;;5032226;28;20179;-76
2021/10/25 02:01:00;;;;;;;15.20;11.03;;;5.70;99.90;;;;;;5031622;28;20223;-76
2021/10/25 02:03:27;;;;;;;12.90;10.23;;;5.80;99.90;;;;;;5032437;28;20493;-76
2021/10/25 02:05:53;;;;;;;19.45;12.57;;;5.80;99.90;;;;;;5031718;28;20577;-77
2021/10/25 02:08:21;;;;;;;15.77;10.88;;;5.80;99.90;;;;;;5032058;28;20185;-75
2021/10/25 02:10:46;;;;;;;18.42;12.50;;;5.80;99.90;;;;;;5030100;28;20576;-76
2021/10/25 02:13:16;;;;;;;17.80;11.40;;;5.80;99.90;;;;;;5033035;28;20182;-75
2021/10/25 02:15:43;;;;;;;20.83;11.80;;;5.80;99.90;;;;;;5031226;28;20237;-76
2021/10/25 02:18:10;;;;;;;18.92;12.05;;;5.80;99.90;;;;;;5032528;28;20555;-76
2021/10/25 02:20:36;;;;;;;14.32;11.10;;;5.80;99.90;;;;;;5031194;28;20532;-75
2021/10/25 02:23:01;;;;;;;15.03;10.80;;;5.80;99.90;;;;;;5032082;28;20185;-76
2021/10/25 02:25:27;;;;;;;15.60;11.20;;;5.80;99.90;;;;;;5031546;28;20182;-76
2021/10/25 02:27:52;;;;;;;17.00;12.00;;;5.80;99.90;;;;;;5032083;28;20179;-76
2021/10/25 02:30:19;;;;;;;17.97;11.83;;;5.80;99.90;;;;;;5030737;28;20182;-76
2021/10/25 02:32:46;;;;;;;18.10;11.30;;;5.80;99.90;;;;;;5032472;28;20209;-76
2021/10/25 02:35:11;;;;;;;20.70;11.43;;;5.70;99.90;;;;;;5032008;28;20202;-75
2021/10/25 02:37:37;;;;;;;16.20;12.13;;;5.70;99.90;;;;;;5030575;28;20182;-76
2021/10/25 02:40:03;;;;;;;24.17;11.77;;;5.70;99.90;;;;;;5031796;28;20175;-75
2021/10/25 02:42:29;;;;;;;16.48;11.40;;;5.60;99.90;;;;;;5032566;28;20178;-76
2021/10/25 02:44:55;;;;;;;13.97;11.50;;;5.60;99.90;;;;;;5030066;28;20362;-76
2021/10/25 02:47:20;;;;;;;15.10;11.63;;;5.60;99.90;;;;;;5032657;28;20208;-76
2021/10/25 02:49:46;;;;;;;16.20;11.30;;;5.60;99.90;;;;;;5031578;28;20186;-76
2021/10/25 02:52:11;;;;;;;21.37;12.33;;;5.60;99.90;;;;;;5030914;28;20194;-76
2021/10/25 02:54:37;;;;;;;17.90;11.70;;;5.60;99.90;;;;;;5031695;28;20668;-76
2021/10/25 02:57:03;;;;;;;11.20;9.07;;;5.60;99.90;;;;;;5031755;28;20187;-77
2021/10/25 02:59:28;;;;;;;15.80;10.60;;;5.60;99.90;;;;;;5031019;28;20554;-76
2021/10/25 03:01:54;;;;;;;12.93;10.63;;;5.60;99.90;;;;;;5031155;28;20449;-76
2021/10/25 03:04:20;;;;;;;15.50;10.80;;;5.50;99.90;;;;;;5032549;28;20899;-76
2021/10/25 03:06:46;;;;;;;17.10;11.50;;;5.50;99.90;;;;;;5031303;28;20186;-76
2021/10/25 03:09:30;;;;;;;19.98;12.77;;;5.50;99.90;;;;;;5031908;28;20178;-77
2021/10/25 03:11:56;;;;;;;15.80;10.68;;;5.40;99.90;;;;;;5031404;28;20193;-76
2021/10/25 03:14:22;;;;;;;13.50;9.77;;;5.40;99.90;;;;;;5033766;28;20213;-76
2021/10/25 03:16:47;;;;;;;12.43;9.43;;;5.40;99.90;;;;;;5036149;28;20167;-76
2021/10/25 03:19:13;;;;;;;11.17;10.00;;;5.40;99.90;;;;;;5034966;28;20182;-75
2021/10/25 03:21:38;;;;;;;14.87;11.10;;;5.30;99.90;;;;;;5034947;28;20508;-76
2021/10/25 03:24:04;;;;;;;12.83;10.43;;;5.30;99.90;;;;;;5035360;28;20590;-75
2021/10/25 03:26:48;;;;;;;13.43;10.30;;;5.40;99.90;;;;;;5036279;28;20184;-76
2021/10/25 03:29:14;;;;;;;14.52;10.60;;;5.30;99.90;;;;;;5035079;28;20253;-75
2021/10/25 03:31:39;;;;;;;17.23;11.23;;;5.30;99.90;;;;;;5034961;28;20578;-75
2021/10/25 03:34:05;;;;;;;17.83;10.97;;;5.30;99.90;;;;;;5034499;28;20624;-76
2021/10/25 03:36:32;;;;;;;14.50;9.83;;;5.30;99.90;;;;;;5035991;28;20184;-76
2021/10/25 03:38:58;;;;;;;17.80;11.05;;;5.20;99.90;;;;;;5034631;28;20183;-76
2021/10/25 03:41:34;;;;;;;13.43;10.97;;;5.10;99.90;;;;;;5035432;28;20251;-76
2021/10/25 03:44:10;;;;;;;12.27;10.43;;;5.10;99.90;;;;;;5034264;28;20432;-76
2021/10/25 03:46:45;;;;;;;13.82;9.75;;;5.10;99.90;;;;;;5035147;28;20182;-76
2021/10/25 03:49:26;;;;;;;18.42;11.60;;;5.00;99.90;;;;;;5034648;28;20209;-76
2021/10/25 03:51:52;;;;;;;13.52;10.35;;;5.00;99.90;;;;;;5029828;28;20189;-76
2021/10/25 03:54:35;;;;;;;16.67;9.67;;;4.90;99.90;;;;;;5033396;28;20179;-76
2021/10/25 03:59:42;;;;;;;15.55;9.75;;;4.90;99.90;;;;;;5035165;28;20583;-76
2021/10/25 04:29:28;;;;;;;9.85;8.48;;;4.80;99.90;;;;;;5033591;28;20192;-76
2021/10/25 04:31:54;;;;;;;19.23;10.80;;;4.80;99.90;;;;;;5030755;28;20223;-76
2021/10/25 04:34:20;;;;;;;16.40;10.50;;;4.80;99.90;;;;;;5033131;28;20210;-75
2021/10/25 04:36:46;;;;;;;11.60;9.50;;;4.80;99.90;;;;;;5033396;28;20531;-75
2021/10/25 04:39:13;;;;;;;19.80;11.57;;;4.80;99.90;;;;;;5033248;28;20185;-77
2021/10/25 04:41:40;;;;;;;13.80;10.80;;;4.80;99.90;;;;;;5033969;28;20421;-75
2021/10/25 04:44:06;;;;;;;18.35;11.05;;;4.80;99.90;;;;;;5032514;28;20194;-76
2021/10/25 04:46:32;;;;;;;18.02;12.20;;;4.80;99.90;;;;;;5034028;28;20195;-76
2021/10/25 04:49:00;;;;;;;15.10;11.20;;;4.80;99.90;;;;;;5033260;28;20194;-75
2021/10/25 04:51:47;;;;;;;17.88;11.23;;;4.90;99.90;;;;;;5033229;28;20847;-76
2021/10/25 04:54:16;;;;;;;15.60;10.38;;;4.80;99.90;;;;;;5033305;28;20183;-76
2021/10/25 04:56:42;;;;;;;19.17;10.77;;;4.80;99.90;;;;;;5031923;28;20214;-76
2021/10/25 04:59:07;;;;;;;15.98;9.88;;;4.80;99.90;;;;;;5034348;28;20190;-76
2021/10/25 05:01:33;;;;;;;16.67;10.90;;;4.80;99.90;;;;;;5032054;28;20281;-76
2021/10/25 05:04:00;;;;;;;18.90;12.03;;;4.80;99.90;;;;;;5033605;28;20182;-76
2021/10/25 05:06:25;;;;;;;16.10;10.25;;;4.80;99.90;;;;;;5030658;28;20577;-76
2021/10/25 05:08:51;;;;;;;16.10;10.40;;;4.70;99.90;;;;;;5033094;28;20190;-75
2021/10/25 05:11:16;;;;;;;19.40;11.20;;;4.70;99.90;;;;;;5033892;28;20244;-76
2021/10/25 05:13:45;;;;;;;13.20;9.70;;;4.70;99.90;;;;;;5033442;28;20515;-76
2021/10/25 05:16:10;;;;;;;20.48;12.95;;;4.70;99.90;;;;;;5032610;28;20268;-75
2021/10/25 05:18:36;;;;;;;13.40;9.93;;;4.70;99.90;;;;;;5033099;28;20198;-76
2021/10/25 05:21:02;;;;;;;13.57;9.70;;;4.70;99.90;;;;;;5033119;28;20204;-76
2021/10/25 05:23:27;;;;;;;16.03;9.57;;;4.70;99.90;;;;;;5032496;28;20213;-75
2021/10/25 05:25:53;;;;;;;17.30;10.60;;;4.70;99.90;;;;;;5031197;28;20614;-76
2021/10/25 05:28:19;;;;;;;11.60;9.10;;;4.60;99.90;;;;;;5033991;28;20429;-76
2021/10/25 05:30:44;;;;;;;12.20;9.63;;;4.60;99.90;;;;;;5030720;28;20240;-76
2021/10/25 05:33:11;;;;;;;15.00;9.87;;;4.70;99.90;;;;;;5030996;28;20190;-76
2021/10/25 05:35:40;;;;;;;11.80;8.82;;;4.60;99.90;;;;;;5032920;28;20460;-76
2021/10/25 05:38:06;;;;;;;14.63;9.57;;;4.60;99.90;;;;;;5031555;28;20179;-76
2021/10/25 05:40:32;;;;;;;15.20;9.67;;;4.60;99.90;;;;;;5032628;28;20640;-76
2021/10/25 05:42:58;;;;;;;12.83;9.50;;;4.60;99.90;;;;;;5031309;28;20178;-76
2021/10/25 05:45:24;;;;;;;13.55;9.30;;;4.50;99.90;;;;;;5032382;28;20765;-75
2021/10/25 05:47:50;;;;;;;13.00;9.70;;;4.50;99.90;;;;;;5031962;28;20194;-76
2021/10/25 05:50:16;;;;;;;15.10;9.60;;;4.50;99.90;;;;;;5032888;28;20186;-77
2021/10/25 05:52:41;;;;;;;10.63;8.13;;;4.50;99.90;;;;;;5031197;28;20641;-76
2021/10/25 05:55:08;;;;;;;10.20;7.90;;;4.60;99.90;;;;;;5031000;28;20468;-76
2021/10/25 05:57:33;;;;;;;16.42;8.18;;;4.60;99.90;;;;;;5032454;28;20210;-76
2021/10/25 05:59:59;;;;;;;13.07;9.10;;;4.50;99.90;;;;;;5030533;28;20267;-76
2021/10/25 06:02:29;;;;;;;14.27;7.97;;;4.50;99.90;;;;;;5027641;28;20257;-76
2021/10/25 06:05:00;;;;;;;9.07;7.10;;;4.50;99.90;;;;;;5030750;28;20522;-76
2021/10/25 06:07:26;;;;;;;10.88;9.40;;;4.50;99.90;;;;;;5033253;28;20186;-76
2021/10/25 06:09:52;;;;;;;11.50;8.63;;;4.40;99.90;;;;;;5030708;28;20654;-77
2021/10/25 06:12:19;;;;;;;12.17;8.87;;;4.40;99.90;;;;;;5032297;28;20484;-76
2021/10/25 06:14:46;;;;;;;10.77;9.10;;;4.40;99.90;;;;;;5030578;28;20208;-76
2021/10/25 06:17:26;;;;;;;10.50;8.20;;;4.50;99.90;;;;;;5033006;28;20182;-76
2021/10/25 06:19:52;;;;;;;13.75;9.63;;;4.50;99.90;;;;;;5032276;28;20269;-76
2021/10/25 06:22:19;;;;;;;12.50;9.07;;;4.50;99.90;;;;;;5032727;28;20273;-76
2021/10/25 06:24:49;;;;;;;23.15;9.75;;;4.50;99.90;;;;;;5033310;28;20261;-76
2021/10/25 06:27:15;;;;;;;14.65;8.70;;;4.50;99.90;;;;;;5030196;28;20256;-76
2021/10/25 06:29:41;;;;;;;13.85;9.90;;;4.60;99.90;;;;;;5031834;28;20196;-77
2021/10/25 06:32:07;;;;;;;11.60;8.57;;;4.60;99.90;;;;;;5032143;28;20284;-76
2021/10/25 06:34:38;;;;;;;14.70;8.97;;;4.70;99.90;;;;;;5031002;28;20289;-76
2021/10/25 06:37:05;;;;;;;13.43;8.60;;;4.70;99.90;;;;;;5031877;28;20440;-77
2021/10/25 06:39:39;;;;;;;15.48;10.45;;;4.70;99.90;;;;;;5032273;28;20535;-77
2021/10/25 06:42:06;;;;;;;13.75;9.32;;;4.70;99.90;;;;;;5029800;28;20228;-76
2021/10/25 06:44:36;;;;;;;13.05;9.57;;;4.70;99.90;;;;;;5031739;28;20269;-76
2021/10/25 06:47:01;;;;;;;13.02;9.63;;;4.70;99.90;;;;;;5028987;28;21090;-76
2021/10/25 06:49:28;;;;;;;10.97;8.93;;;4.70;99.90;;;;;;5032653;28;20190;-76
2021/10/25 06:51:55;;;;;;;14.55;9.75;;;4.70;99.90;;;;;;5033746;28;21923;-77
2021/10/25 06:54:21;;;;;;;15.88;10.07;;;4.70;99.90;;;;;;5034768;28;20198;-76
2021/10/25 06:56:47;;;;;;;14.57;9.37;;;4.80;99.90;;;;;;5032272;28;20201;-76
2021/10/25 06:59:12;;;;;;;16.60;9.93;;;4.80;99.90;;;;;;5034791;28;20563;-76
2021/10/25 07:01:38;;;;;;;16.43;9.93;;;4.90;99.90;;;;;;5035531;28;20170;-76
2021/10/25 07:04:04;;;;;;;13.23;9.43;;;4.90;99.90;;;;;;5034382;28;20655;-76
2021/10/25 07:06:32;;;;;;;14.90;9.87;;;4.90;99.90;;;;;;5034142;28;20270;-76
2021/10/25 07:08:58;;;;;;;12.57;10.18;;;5.00;99.90;;;;;;5034555;28;20433;-77
2021/10/25 07:11:23;;;;;;;13.68;9.63;;;5.00;99.90;;;;;;5034287;28;20186;-76
2021/10/25 07:13:51;;;;;;;16.63;10.93;;;5.10;99.90;;;;;;5038366;28;20181;-76
2021/10/25 07:16:43;;;;;;;21.63;11.80;;;5.20;99.90;;;;;;5035194;28;20210;-76
2021/10/25 08:00:29;;;;;;;17.75;13.50;;;7.00;99.90;;;;;;5016033;28;20283;-76
2021/10/25 08:10:34;;;;;;;13.98;10.35;;;7.50;99.90;;;;;;5025533;28;20235;-76
2021/10/25 08:13:02;;;;;;;13.10;10.68;;;7.50;99.90;;;;;;5025479;28;20228;-77
2021/10/25 08:15:41;;;;;;;11.73;9.55;;;7.60;99.90;;;;;;5025968;28;20206;-76
2021/10/25 08:18:19;;;;;;;13.65;11.18;;;7.70;99.90;;;;;;5025861;28;20174;-76
2021/10/25 08:20:45;;;;;;;17.02;10.60;;;7.90;99.90;;;;;;5025023;28;20193;-76
2021/10/25 08:23:10;;;;;;;19.37;11.20;;;8.10;99.90;;;;;;5021893;28;20182;-76
2021/10/25 08:25:36;;;;;;;12.47;10.10;;;8.20;99.90;;;;;;5025212;28;20186;-77
2021/10/25 08:28:02;;;;;;;13.03;10.03;;;8.40;99.90;;;;;;5026043;28;20626;-76
2021/10/25 08:30:27;;;;;;;22.53;10.10;;;8.40;99.90;;;;;;5025218;28;20184;-76
2021/10/25 08:33:43;;;;;;;13.93;9.77;;;8.60;99.90;;;;;;5025578;28;20437;-76
2021/10/25 08:35:56;;;;;;;13.57;9.73;;;8.90;99.90;;;;;;5021242;28;20699;-76
2021/10/25 08:41:06;;;;;;;13.30;9.23;;;9.30;99.90;;;;;;5022858;28;20531;-76
2021/10/25 08:43:35;;;;;;;11.07;9.07;;;9.60;99.90;;;;;;5020993;28;20244;-75
2021/10/25 08:46:03;;;;;;;12.65;8.98;;;9.80;99.90;;;;;;5022481;28;20229;-75
2021/10/25 08:48:30;;;;;;;11.90;8.20;;;10.00;99.90;;;;;;5022667;28;20619;-75
2021/10/25 08:50:57;;;;;;;12.15;8.70;;;10.10;99.90;;;;;;5022581;28;20182;-75
2021/10/25 08:53:23;;;;;;;11.98;7.78;;;10.40;99.90;;;;;;5023595;28;20292;-75
2021/10/25 08:55:51;;;;;;;11.10;8.43;;;10.50;99.90;;;;;;5022830;28;20210;-75
2021/10/25 08:58:19;;;;;;;10.02;7.63;;;10.70;99.90;;;;;;5022354;28;20262;-75
2021/10/25 09:00:52;;;;;;;18.55;8.23;;;10.90;99.90;;;;;;5025441;28;20214;-75
2021/10/25 09:03:20;;;;;;;7.60;6.77;;;10.70;99.90;;;;;;5028352;28;20178;-75
2021/10/25 09:05:56;;;;;;;10.50;8.27;;;10.80;99.90;;;;;;5029805;28;20417;-75
2021/10/25 09:08:22;;;;;;;9.20;6.63;;;11.00;99.90;;;;;;5033775;28;20432;-75
2021/10/25 09:10:48;;;;;;;8.67;6.80;;;11.00;99.90;;;;;;5028987;28;20205;-76
2021/10/25 09:13:19;;;;;;;11.10;7.90;;;11.30;99.90;;;;;;5034350;28;20433;-75
2021/10/25 09:15:59;;;;;;;10.13;7.47;;;11.30;99.90;;;;;;5032711;28;20456;-74
2021/10/25 09:18:31;;;;;;;12.83;7.53;;;11.40;99.90;;;;;;5032605;28;20452;-75
2021/10/25 09:21:02;;;;;;;7.27;6.57;;;11.40;99.90;;;;;;5028345;28;20422;-75
2021/10/25 09:23:30;;;;;;;8.10;6.70;;;11.70;99.90;;;;;;5028675;28;20432;-76
2021/10/25 09:26:00;;;;;;;7.83;6.77;;;11.70;99.90;;;;;;5032606;28;22012;-75
2021/10/25 09:28:31;;;;;;;11.13;8.33;;;11.60;99.90;;;;;;5034135;28;20441;-75
2021/10/25 09:31:02;;;;;;;12.80;6.83;;;11.60;99.90;;;;;;5047094;28;20428;-75
2021/10/25 09:33:37;;;;;;;19.37;6.90;;;11.50;99.90;;;;;;5033985;28;20888;-75
2021/10/25 09:36:08;;;;;;;12.97;7.73;;;11.60;99.90;;;;;;5034582;28;20541;-75
2021/10/25 09:38:59;;;;;;;13.30;8.10;;;11.80;99.90;;;;;;5027698;28;20440;-75
2021/10/25 09:49:56;;;;;;;8.73;6.00;;;12.20;99.90;;;;;;5024626;28;20916;-74
2021/10/25 09:52:34;;;;;;;6.37;5.70;;;12.40;99.90;;;;;;5020961;28;20464;-75
2021/10/25 09:55:11;;;;;;;7.40;6.20;;;12.50;99.90;;;;;;5021152;28;20507;-74
2021/10/25 09:57:50;;;;;;;6.70;6.03;;;12.60;99.90;;;;;;5022095;28;20428;-75
2021/10/25 10:00:17;;;;;;;8.53;5.67;;;12.60;99.90;;;;;;5021845;28;20429;-75
2021/10/25 10:02:45;;;;;;;7.87;7.07;;;12.80;99.90;;;;;;5021581;28;20429;-76
2021/10/25 10:05:13;;;;;;;5.90;5.30;;;13.20;99.90;;;;;;5023706;28;20429;-75
2021/10/25 10:07:39;;;;;;;7.00;6.30;;;13.60;99.90;;;;;;5024649;28;20441;-75
2021/10/25 10:10:07;;;;;;;6.33;5.70;;;14.10;99.90;;;;;;5023444;28;20440;-75
2021/10/25 10:12:34;;;;;;;9.80;6.80;;;14.20;99.90;;;;;;5020025;28;20779;-76
2021/10/25 10:15:02;;;;;;;7.60;6.10;;;14.50;99.90;;;;;;5019350;28;20523;-76
2021/10/25 10:17:32;;;;;;;6.30;5.03;;;14.60;99.90;;;;;;5020293;28;20433;-76
2021/10/25 10:20:04;;;;;;;6.80;5.60;;;15.00;99.90;;;;;;5021788;28;20427;-76
2021/10/25 10:22:32;;;;;;;6.93;5.80;;;15.10;99.90;;;;;;5021774;28;20536;-76
2021/10/25 10:24:59;;;;;;;7.20;5.20;;;14.80;99.90;;;;;;5030053;28;20435;-75
2021/10/25 10:27:25;;;;;;;8.90;5.63;;;15.10;99.90;;;;;;5030145;28;20435;-76
2021/10/25 10:29:58;;;;;;;12.90;6.30;;;15.90;99.90;;;;;;5029994;28;20425;-75
2021/10/25 10:32:26;;;;;;;6.20;5.47;;;16.40;99.90;;;;;;5025915;28;20419;-76
2021/10/25 10:34:53;;;;;;;6.33;5.27;;;17.20;99.90;;;;;;5028077;28;20598;-76
2021/10/25 10:37:24;;;;;;;8.20;5.40;;;18.10;99.90;;;;;;5029388;28;21658;-76
2021/10/25 10:40:10;;;;;;;12.30;5.60;;;19.20;99.90;;;;;;5028894;28;20452;-76
2021/10/25 10:42:41;;;;;;;5.83;5.00;;;20.20;99.90;;;;;;5028670;28;20442;-76
2021/10/25 10:45:11;;;;;;;6.80;5.30;;;21.30;99.90;;;;;;5036942;28;20796;-76
2021/10/25 10:47:52;;;;;;;11.20;5.13;;;21.00;98.70;;;;;;5038065;28;20448;-76
2021/10/25 10:50:25;;;;;;;8.57;4.60;;;20.60;98.70;;;;;;5038604;28;20420;-76
2021/10/25 10:53:07;;;;;;;7.47;5.20;;;20.20;99.90;;;;;;5039878;28;20454;-76
2021/10/25 10:55:38;;;;;;;6.23;4.87;;;19.70;99.90;;;;;;5020752;28;20496;-76
2021/10/25 11:00:45;;;;;;;4.73;4.27;;;21.30;97.30;;;;;;5028394;28;20444;-77
2021/10/25 11:03:28;;;;;;;6.47;4.53;;;21.40;97.70;;;;;;5028648;28;20433;-76
2021/10/25 11:06:01;;;;;;;6.40;4.60;;;21.50;99.50;;;;;;5027348;28;20498;-77
2021/10/25 11:08:32;;;;;;;6.77;4.53;;;22.10;98.10;;;;;;5030916;28;20495;-77
2021/10/25 11:11:03;;;;;;;8.70;5.20;;;22.00;93.40;;;;;;5029941;28;20447;-77
2021/10/25 11:13:31;;;;;;;5.43;4.93;;;21.30;93.50;;;;;;5028700;28;20411;-76
2021/10/25 11:16:10;;;;;;;5.43;3.67;;;20.40;97.90;;;;;;5028351;28;20561;-76
2021/10/25 11:18:39;;;;;;;5.77;4.87;;;20.20;99.90;;;;;;5029004;28;20987;-77
2021/10/25 11:21:18;;;;;;;6.30;4.10;;;20.20;99.90;;;;;;5033459;28;20429;-76
2021/10/25 11:23:55;;;;;;;6.40;3.50;;;20.60;99.90;;;;;;5030813;28;20431;-76
2021/10/25 11:26:36;;;;;;;5.90;4.70;;;20.10;99.90;;;;;;5038479;28;20434;-76
2021/10/25 11:29:09;;;;;;;6.47;4.20;;;20.20;99.90;;;;;;5038677;28;20481;-76
2021/10/25 11:31:39;;;;;;;5.93;5.00;;;21.70;99.90;;;;;;5038553;28;20447;-77
2021/10/25 11:34:21;;;;;;;8.23;4.00;;;21.90;94.20;;;;;;5035431;28;20435;-77
2021/10/25 11:37:28;;;;;;;6.00;3.10;;;21.60;94.10;;;;;;5034822;28;20817;-76
2021/10/25 11:42:36;;;;;;;3.77;3.37;;;21.10;95.40;;;;;;5036777;28;20428;-76
2021/10/25 11:45:24;;;;;;;4.40;3.90;;;20.70;97.60;;;;;;5035902;28;20739;-76
2021/10/25 11:47:51;;;;;;;5.57;3.90;;;20.10;99.50;;;;;;5028466;28;20424;-77
2021/10/25 11:50:18;;;;;;;4.43;4.03;;;19.60;99.90;;;;;;5034563;28;20425;-76
2021/10/25 11:53:00;;;;;;;3.80;3.50;;;19.70;99.90;;;;;;5035484;28;20449;-77
2021/10/25 11:55:36;;;;;;;4.37;3.57;;;19.80;99.90;;;;;;5030729;28;20571;-76
2021/10/25 11:58:03;;;;;;;5.20;4.70;;;19.60;99.90;;;;;;5024864;28;20772;-76
2021/10/25 12:00:31;;;;;;;7.90;4.17;;;19.30;99.90;;;;;;5031345;28;20508;-77
2021/10/25 12:03:08;;;;;;;7.17;4.13;;;18.90;99.90;;;;;;5029861;28;20771;-76
2021/10/25 12:05:41;;;;;;;7.73;4.10;;;19.00;99.90;;;;;;5030908;28;20472;-76
2021/10/25 12:08:11;;;;;;;5.63;4.27;;;18.90;99.90;;;;;;5031962;28;20428;-76
2021/10/25 12:10:39;;;;;;;4.63;4.20;;;19.10;99.90;;;;;;5031167;28;20437;-76
2021/10/25 12:13:07;;;;;;;5.40;4.70;;;19.30;99.90;;;;;;5036924;28;20444;-77
2021/10/25 12:15:35;;;;;;;5.50;3.93;;;19.60;99.90;;;;;;5037731;28;20554;-76
2021/10/25 12:18:04;;;;;;;5.27;4.70;;;20.10;99.90;;;;;;5036148;28;20430;-76
2021/10/25 12:20:55;;;;;;;6.40;3.93;;;20.30;99.90;;;;;;5034368;28;20462;-76
2021/10/25 12:23:24;;;;;;;4.33;3.93;;;19.90;99.90;;;;;;5034682;28;20441;-76
2021/10/25 12:25:59;;;;;;;7.03;4.50;;;19.80;99.90;;;;;;5036888;28;20510;-76
2021/10/25 12:28:26;;;;;;;3.50;3.17;;;19.80;99.90;;;;;;5036682;28;20430;-76
2021/10/25 12:31:06;;;;;;;10.17;4.10;;;19.70;99.90;;;;;;5033140;28;20444;-76
2021/10/25 12:33:34;;;;;;;7.13;5.17;;;19.50;99.90;;;;;;5035270;28;20396;-76
2021/10/25 12:36:19;;;;;;;5.70;4.40;;;19.40;99.90;;;;;;5036976;28;20474;-76
2021/10/25 12:38:47;;;;;;;8.20;4.77;;;19.40;99.90;;;;;;5021111;28;20415;-76
2021/10/25 12:41:13;;;;;;;4.47;4.07;;;19.70;99.90;;;;;;5045574;28;20414;-76
2021/10/25 12:43:41;;;;;;;6.03;4.87;;;19.90;99.90;;;;;;5020537;28;20469;-76
2021/10/25 12:46:10;;;;;;;5.20;4.70;;;20.00;99.90;;;;;;5050121;28;20772;-76
2021/10/25 12:48:47;;;;;;;9.20;5.10;;;19.70;99.90;;;;;;5034200;28;20482;-77
2021/10/25 12:51:13;;;;;;;6.23;4.87;;;19.50;99.90;;;;;;5034505;28;20530;-76
2021/10/25 12:53:48;;;;;;;6.27;4.70;;;19.40;99.90;;;;;;5034167;28;20443;-76
2021/10/25 12:56:24;;;;;;;7.60;4.70;;;19.20;99.90;;;;;;5025770;28;20496;-76
2021/10/25 12:59:00;;;;;;;9.13;5.90;;;19.00;99.90;;;;;;5034290;28;21007;-76
2021/10/25 13:01:26;;;;;;;5.87;3.90;;;18.70;99.90;;;;;;5034265;28;20429;-76
2021/10/25 13:04:04;;;;;;;4.00;2.73;;;18.30;99.90;;;;;;5034493;28;20421;-76
2021/10/25 13:06:31;;;;;;;7.03;3.40;;;17.90;99.90;;;;;;5031960;28;20228;-76
2021/10/25 13:09:10;;;;;;;3.73;2.20;;;17.90;99.90;;;;;;5034504;28;20421;-75
2021/10/25 13:11:36;;;;;;;4.93;2.73;;;17.70;99.90;;;;;;5033458;28;20435;-76
2021/10/25 13:14:03;;;;;;;5.10;2.77;;;17.50;99.90;;;;;;5033110;28;20421;-76
2021/10/25 13:16:31;;;;;;;7.47;3.00;;;17.40;99.90;;;;;;5034114;28;20807;-76
2021/10/25 13:18:56;;;;;;;5.63;3.17;;;17.40;99.90;;;;;;5032880;28;20933;-76
2021/10/25 13:21:22;;;;;;;9.07;3.40;;;17.40;99.90;;;;;;5033819;28;20418;-75
2021/10/25 13:23:48;;;;;;;6.57;3.17;;;17.50;99.90;;;;;;5034027;28;20490;-76
2021/10/25 13:26:14;;;;;;;3.30;2.60;;;17.60;99.90;;;;;;5033852;28;20560;-76
2021/10/25 13:28:41;;;;;;;3.87;2.60;;;17.50;99.90;;;;;;5034318;28;20425;-75
2021/10/25 13:31:07;;;;;;;6.13;2.53;;;17.50;99.90;;;;;;5033583;28;20439;-76
2021/10/25 13:33:36;;;;;;;5.27;2.47;;;17.30;99.90;;;;;;5034255;28;20433;-75
2021/10/25 13:36:02;;;;;;;6.60;3.60;;;17.30;99.90;;;;;;5033883;28;20468;-76
2021/10/25 13:38:27;;;;;;;6.10;2.93;;;17.30;99.90;;;;;;5033917;28;20474;-76
2021/10/25 13:40:53;;;;;;;4.77;3.43;;;17.30;99.90;;;;;;5033373;28;20429;-75
2021/10/25 13:43:18;;;;;;;4.03;2.70;;;17.30;99.90;;;;;;5031877;28;20202;-76
2021/10/25 13:45:45;;;;;;;4.17;2.73;;;17.10;99.90;;;;;;5047049;28;20193;-75
2021/10/25 13:48:11;;;;;;;3.20;2.90;;;17.10;99.90;;;;;;5031995;28;20190;-75
2021/10/25 13:50:37;;;;;;;4.77;3.50;;;17.20;99.90;;;;;;5030036;28;20448;-75
2021/10/25 13:53:03;;;;;;;4.93;3.03;;;17.20;99.90;;;;;;5033873;28;20698;-74
2021/10/25 13:55:28;;;;;;;4.60;3.00;;;17.30;99.90;;;;;;5031997;28;20224;-75
2021/10/25 13:57:54;;;;;;;5.60;2.93;;;17.40;99.90;;;;;;5031809;28;20182;-75
2021/10/25 14:00:20;;;;;;;4.20;2.83;;;17.50;99.90;;;;;;5025982;28;20277;-76
2021/10/25 14:02:47;;;;;;;3.63;2.57;;;17.60;99.90;;;;;;5028170;28;20440;-76
2021/10/25 14:05:18;;;;;;;5.10;3.03;;;17.90;99.90;;;;;;5033083;28;20186;-76
2021/10/25 14:07:43;;;;;;;12.97;3.03;;;18.00;99.90;;;;;;5032828;28;20425;-76
2021/10/25 14:10:36;;;;;;;5.83;3.60;;;18.30;99.90;;;;;;5032977;28;20440;-76
2021/10/25 14:13:12;;;;;;;4.57;2.90;;;18.40;99.90;;;;;;5026503;28;20640;-76
2021/10/25 14:15:49;;;;;;;3.43;2.50;;;18.30;99.90;;;;;;5033254;28;20818;-76
2021/10/25 14:18:16;;;;;;;6.00;3.40;;;17.90;99.90;;;;;;5033204;28;20439;-76
2021/10/25 14:20:48;;;;;;;3.50;2.63;;;17.90;99.90;;;;;;5032795;28;20507;-76
2021/10/25 14:23:13;;;;;;;8.63;3.00;;;17.80;99.90;;;;;;5031594;28;20523;-76
2021/10/25 14:25:39;;;;;;;4.93;3.27;;;17.80;99.90;;;;;;5029908;28;20544;-76
2021/10/25 14:28:05;;;;;;;3.03;2.83;;;17.80;99.90;;;;;;5030464;28;20179;-75